Winchester, CA (92596)

11:47 AM PDT on April 27, 2015 (GMT -0700)
Summer house at the lakes | | Change Station
CLOSE
Current Station
Personal Weather Station
Location: Menifee, CA
Elevation: 1430 ft
Nearby Weather Stations
Active Advisory: Wind Advisory

Elev 1430 ft 33.68 °N, 117.15 °W | Updated 5 minutes ago

Clear
Clear
86.4 °F
Feels Like 83 °F
N
4.7
Wind Variable Wind from South

Today
High -- | Low -- °F
--% Chance of Precip.
Yesterday
High -- | Low -- °F
Precip. -- in
6:04 AM 7:28 PM
Waxing Gibbous, 67% visible
Pressure 29.97 in
Visibility 10.0 miles
Clouds Clear
Heat Index 83 °F
Dew Point 33 °F
Humidity 15%
Rainfall 0.00 in
Snow Depth Not available.
UV 11 out of 12
Pollen 7.90 out of 12
Air Quality Not available.
Flu Activity Sporadic
METAR KF70 271835Z AUTO 00000KT 10SM CLR 24/M02 A2997 RMK AO1

More Conditions Fewer Conditions

Pressure 29.97 in
Visibility 10.0 miles
Clouds Clear
Heat Index 83 °F
Dew Point 33 °F
Humidity 15%
Rainfall 0.00 in
Snow Depth Not available.
UV 11 out of 12
Pollen 7.90 out of 12
Air Quality Not available.
Flu Activity Sporadic
METAR KF70 271835Z AUTO 00000KT 10SM CLR 24/M02 A2997 RMK AO1

More Conditions Fewer Conditions

10-Day Weather Forecast

Almanac

Astronomy

Apr. 27, 2015 Rise Set
Actual Time
Civil Twilight
Nautical Twilight
Astronomical Twilight
Moon
Length of Visible Light
Length of Day
Tomorrow will be .
, % of the Moon is Illuminated

Today's Extremes

State Highs State Lows

Community

WunderPhotos

Upload Photos

1,817,398 photos uploaded!

WunderBlogs® & News

Nearby

Air Quality

  Air Quality AQ Index Pollutant
Not available.

Snow Depth

Station Depth Elevation

Earthquake Activity

City Distance Mag. Time & Date
Minimum magnitude displayed is 2.5.

Coastal Water Temperatures

Place Temperature

Stations

Nearby Weather Stations

Station Location Temp. Windchill Dew Point Humidity Wind Precip. Elev Updated Type
                   
Wind Advisory
Statement as of 11:43 AM PDT on April 27, 2015

... Wind Advisory now in effect until 2 PM PDT this afternoon...

* winds... areas of northeast winds 20 to 30 mph with gusts to 50
mph. Isolated gusts to 65 mph along the coastal slopes of the
Santa Ana Mountains.

* Timing... winds continuing strong... then diminishing by mid-
afternoon.

* Location... strongest winds below the Cajon Pass and along the
coastal foothills of the Santa Ana Mountains.

* Impacts... winds this strong can make driving difficult...
especially for high profile vehicles.

Precautionary/preparedness actions...

A Wind Advisory means that winds of 35 mph are expected. Winds
this strong can make driving difficult... especially for high
profile vehicles. Use extra caution.



Harrison